createdAt,value
2023-05-06T00:02:16.195Z,16.97
2023-05-06T00:04:43.388Z,16.23
2023-05-06T00:07:10.646Z,17.33
2023-05-06T00:09:37.499Z,15.63
2023-05-06T00:12:05.654Z,17.80
2023-05-06T00:14:32.599Z,13.83
2023-05-06T00:16:59.735Z,15.13
2023-05-06T00:19:27.497Z,13.87
2023-05-06T00:21:55.944Z,15.37
2023-05-06T00:24:23.035Z,15.97
2023-05-06T00:26:50.470Z,16.53
2023-05-06T00:29:17.444Z,13.80
2023-05-06T00:31:45.425Z,13.47
2023-05-06T00:34:12.482Z,12.37
2023-05-06T00:36:39.670Z,14.57
2023-05-06T00:39:06.505Z,13.90
2023-05-06T00:41:34.096Z,10.57
2023-05-06T00:44:01.044Z,12.23
2023-05-06T00:46:28.224Z,9.10
2023-05-06T00:48:55.700Z,7.87
2023-05-06T00:51:23.072Z,10.80
2023-05-06T00:53:50.421Z,17.43
2023-05-06T00:56:20.586Z,10.17
2023-05-06T00:58:48.368Z,11.13
2023-05-06T01:01:15.804Z,11.63
2023-05-06T01:03:42.901Z,9.60
2023-05-06T01:06:32.603Z,11.00
2023-05-06T01:09:32.009Z,11.33
2023-05-06T01:12:09.355Z,10.73
2023-05-06T01:14:54.324Z,10.40
2023-05-06T01:17:26.598Z,9.47
2023-05-06T01:19:58.447Z,9.13
2023-05-06T01:22:27.238Z,11.10
2023-05-06T01:24:54.039Z,13.88
2023-05-06T01:27:21.944Z,10.83
2023-05-06T01:29:49.355Z,11.17
2023-05-06T01:32:19.417Z,12.93
2023-05-06T01:35:17.910Z,11.87
2023-05-06T01:37:56.644Z,10.07
2023-05-06T01:40:27.522Z,11.95
2023-05-06T01:42:55.749Z,12.00
2023-05-06T01:45:27.767Z,12.13
2023-05-06T01:47:56.954Z,11.90
2023-05-06T01:50:23.943Z,12.77
2023-05-06T01:53:01.984Z,12.83
2023-05-06T01:55:29.396Z,9.57
2023-05-06T01:57:59.602Z,11.23
2023-05-06T02:00:26.710Z,13.90
2023-05-06T02:02:54.132Z,12.90
2023-05-06T02:05:21.217Z,15.07
2023-05-06T02:07:48.452Z,14.47
2023-05-06T02:10:15.404Z,17.23
2023-05-06T02:12:42.694Z,12.37
2023-05-06T02:15:10.495Z,12.30
2023-05-06T02:17:38.707Z,10.97
2023-05-06T02:20:06.238Z,14.17
2023-05-06T02:22:33.372Z,9.63
2023-05-06T02:25:00.197Z,11.37
2023-05-06T02:27:27.723Z,14.53
2023-05-06T02:29:54.636Z,15.37
2023-05-06T02:32:21.858Z,12.10
2023-05-06T02:34:48.845Z,12.27
2023-05-06T02:37:16.219Z,15.97
2023-05-06T02:39:43.071Z,16.07
2023-05-06T02:42:14.045Z,15.70
2023-05-06T02:44:40.966Z,11.63
2023-05-06T02:47:08.163Z,16.33
2023-05-06T02:49:35.070Z,13.87
2023-05-06T02:52:02.308Z,13.50
2023-05-06T02:54:29.168Z,13.73
2023-05-06T02:56:56.362Z,16.43
2023-05-06T02:59:23.792Z,13.93
2023-05-06T03:01:50.972Z,12.17
2023-05-06T03:04:18.037Z,11.47
2023-05-06T03:06:45.165Z,13.97
2023-05-06T03:09:11.976Z,12.17
2023-05-06T03:11:39.056Z,13.83
2023-05-06T03:14:05.989Z,15.00
2023-05-06T03:16:33.229Z,13.43
2023-05-06T03:19:00.343Z,13.93
2023-05-06T03:21:27.644Z,15.33
2023-05-06T03:23:54.601Z,9.50
2023-05-06T03:26:21.773Z,11.23
2023-05-06T03:28:48.640Z,14.47
2023-05-06T03:31:16.183Z,10.50
2023-05-06T03:33:43.097Z,12.57
2023-05-06T03:36:10.228Z,10.87
2023-05-06T03:38:37.029Z,12.20
2023-05-06T03:41:04.843Z,10.93
2023-05-06T03:43:31.688Z,8.93
2023-05-06T03:45:58.840Z,11.23
2023-05-06T03:48:25.965Z,12.10
2023-05-06T03:50:53.184Z,7.77
2023-05-06T03:53:20.216Z,10.67
2023-05-06T03:55:47.430Z,14.50
2023-05-06T03:58:14.281Z,10.03
2023-05-06T04:00:41.593Z,12.43
2023-05-06T04:03:08.543Z,10.37
2023-05-06T04:05:36.329Z,12.70
2023-05-06T04:08:03.306Z,9.63
2023-05-06T04:10:31.120Z,7.73
2023-05-06T04:12:58.071Z,9.77
2023-05-06T04:15:25.491Z,7.63
2023-05-06T04:17:52.414Z,8.45
2023-05-06T04:20:20.418Z,8.15
2023-05-06T04:22:47.301Z,11.07
2023-05-06T04:25:14.421Z,6.63
2023-05-06T04:27:41.517Z,8.30
2023-05-06T04:30:09.589Z,6.95
2023-05-06T04:32:37.025Z,10.70
2023-05-06T04:35:04.910Z,8.35
2023-05-06T04:37:31.736Z,8.55
2023-05-06T04:39:58.856Z,7.70
2023-05-06T04:42:25.728Z,8.90
2023-05-06T04:44:52.980Z,9.55
2023-05-06T04:47:19.808Z,6.78
2023-05-06T04:49:47.282Z,6.78
2023-05-06T04:52:14.141Z,7.60
2023-05-06T04:54:42.573Z,10.93
2023-05-06T04:57:10.358Z,10.27
2023-05-06T04:59:37.490Z,7.47
2023-05-06T05:02:04.498Z,6.00
2023-05-06T05:04:31.622Z,9.38
2023-05-06T05:06:58.773Z,9.00
2023-05-06T05:09:26.421Z,10.02
2023-05-06T05:11:53.407Z,10.98
2023-05-06T05:14:20.502Z,6.47
2023-05-06T05:16:47.439Z,6.53
2023-05-06T05:19:14.589Z,9.50
2023-05-06T05:21:41.460Z,6.60
2023-05-06T05:24:08.652Z,7.80
2023-05-06T05:26:35.621Z,11.20
2023-05-06T05:29:02.947Z,9.50
2023-05-06T05:31:31.462Z,8.23
2023-05-06T05:33:58.678Z,6.50
2023-05-06T05:36:26.089Z,5.97
2023-05-06T05:38:53.259Z,7.75
2023-05-06T05:41:20.143Z,6.32
2023-05-06T05:43:47.299Z,9.77
2023-05-06T05:46:14.432Z,7.18
2023-05-06T05:48:42.061Z,6.78
2023-05-06T05:51:08.956Z,7.75
2023-05-06T05:53:36.237Z,8.85
2023-05-06T05:56:03.042Z,7.65
2023-05-06T05:58:30.196Z,7.28
2023-05-06T06:00:57.053Z,9.32
2023-05-06T06:03:24.271Z,8.10
2023-05-06T06:05:53.237Z,6.07
2023-05-06T06:08:20.604Z,8.13
2023-05-06T06:10:47.483Z,6.28
2023-05-06T06:13:14.722Z,7.85
2023-05-06T06:15:41.657Z,9.27
2023-05-06T06:18:09.031Z,7.90
2023-05-06T06:20:36.652Z,6.70
2023-05-06T06:23:03.783Z,10.68
2023-05-06T06:25:30.653Z,10.55
2023-05-06T06:27:57.899Z,10.15
2023-05-06T06:30:24.927Z,13.75
2023-05-06T06:32:53.613Z,13.98
2023-05-06T06:35:20.688Z,18.08
2023-05-06T06:37:47.992Z,18.15
2023-05-06T06:40:15.219Z,15.98
2023-05-06T06:42:42.470Z,14.27
2023-05-06T06:45:10.116Z,13.73
2023-05-06T06:47:37.603Z,11.93
2023-05-06T06:50:04.918Z,12.30
2023-05-06T06:52:32.086Z,16.65
2023-05-06T06:54:58.988Z,12.63
2023-05-06T06:57:26.657Z,9.43
2023-05-06T06:59:54.837Z,10.02
2023-05-06T07:02:22.492Z,11.13
2023-05-06T07:04:49.433Z,10.55
2023-05-06T07:07:16.572Z,9.05
2023-05-06T07:09:44.520Z,9.45
2023-05-06T07:12:12.440Z,7.45
2023-05-06T07:14:39.542Z,9.40
2023-05-06T07:17:06.688Z,14.30
2023-05-06T07:19:33.621Z,16.98
2023-05-06T07:22:01.053Z,9.88
2023-05-06T07:24:27.905Z,8.05
2023-05-06T07:26:55.087Z,8.75
2023-05-06T07:29:21.953Z,7.95
2023-05-06T07:31:49.085Z,8.25
2023-05-06T07:34:15.899Z,5.90
2023-05-06T07:36:44.805Z,8.25
2023-05-06T07:39:12.410Z,10.05
2023-05-06T07:41:39.898Z,6.82
2023-05-06T07:44:06.892Z,13.13
2023-05-06T07:46:34.198Z,11.18
2023-05-06T07:49:01.096Z,8.15
2023-05-06T07:51:28.285Z,12.52
2023-05-06T07:53:55.188Z,5.32
2023-05-06T07:56:22.394Z,5.80
2023-05-06T07:58:49.432Z,14.98
2023-05-06T08:01:16.699Z,6.82
2023-05-06T08:03:44.162Z,5.63
2023-05-06T08:06:11.444Z,7.68
2023-05-06T08:08:38.298Z,5.95
2023-05-06T08:11:05.541Z,8.43
2023-05-06T08:13:33.623Z,9.55
2023-05-06T08:16:02.453Z,5.22
2023-05-06T08:18:30.064Z,5.78
2023-05-06T08:20:57.290Z,8.65
2023-05-06T08:23:24.292Z,7.80
2023-05-06T08:25:51.994Z,8.23
2023-05-06T08:28:19.534Z,5.25
2023-05-06T08:30:48.482Z,8.45
2023-05-06T08:33:15.444Z,6.03
2023-05-06T08:35:42.586Z,8.43
2023-05-06T08:38:09.466Z,5.20
2023-05-06T08:40:43.031Z,5.15
2023-05-06T08:43:14.828Z,4.65
2023-05-06T08:45:42.682Z,6.60
2023-05-06T08:48:09.908Z,13.30
2023-05-06T08:50:42.355Z,7.18
2023-05-06T08:53:13.651Z,9.52
2023-05-06T08:55:42.602Z,7.63
2023-05-06T08:58:11.915Z,9.00
2023-05-06T09:00:39.512Z,9.30
2023-05-06T09:03:06.730Z,7.95
2023-05-06T09:05:34.124Z,17.70
2023-05-06T09:08:01.065Z,6.25
2023-05-06T09:10:54.237Z,13.90
2023-05-06T09:13:21.144Z,6.70
2023-05-06T09:15:49.214Z,9.95
2023-05-06T09:18:17.186Z,5.65
2023-05-06T09:20:46.920Z,6.70
2023-05-06T09:23:16.001Z,10.95
2023-05-06T09:25:44.568Z,9.25
2023-05-06T09:28:13.538Z,7.53
2023-05-06T09:30:42.275Z,13.65
2023-05-06T09:33:09.984Z,7.68
2023-05-06T09:35:41.231Z,17.90
2023-05-06T09:38:09.013Z,11.63
2023-05-06T09:40:37.492Z,11.27
2023-05-06T09:43:05.178Z,7.57
2023-05-06T09:45:33.295Z,7.00
2023-05-06T09:48:01.185Z,8.48
2023-05-06T09:50:28.834Z,6.17
2023-05-06T09:52:56.370Z,7.63
2023-05-06T09:55:23.781Z,3.88
2023-05-06T09:57:50.768Z,11.95
2023-05-06T10:00:18.725Z,8.15
2023-05-06T10:02:47.895Z,4.70
2023-05-06T10:05:17.329Z,12.50
2023-05-06T10:10:13.773Z,5.60
2023-05-06T10:12:40.950Z,11.00
2023-05-06T10:15:09.374Z,7.43
2023-05-06T10:17:39.770Z,7.13
2023-05-06T10:20:09.760Z,6.05
2023-05-06T10:23:03.572Z,9.57
2023-05-06T10:25:37.259Z,8.52
2023-05-06T10:28:14.547Z,7.57
2023-05-06T10:30:58.647Z,11.15
2023-05-06T10:36:14.501Z,11.73
2023-05-06T10:38:43.732Z,12.52
2023-05-06T10:41:12.624Z,12.77
2023-05-06T10:43:42.028Z,11.02
2023-05-06T10:46:11.339Z,6.35
2023-05-06T10:48:40.410Z,5.45
2023-05-06T10:53:55.682Z,8.93
2023-05-06T10:56:22.840Z,8.70
2023-05-06T10:58:49.769Z,8.65
2023-05-06T11:01:17.535Z,9.05
2023-05-06T11:03:44.639Z,10.07
2023-05-06T11:06:12.045Z,9.77
2023-05-06T11:08:39.242Z,7.65
2023-05-06T11:11:49.215Z,12.88
2023-05-06T11:14:25.951Z,8.07
2023-05-06T11:16:55.547Z,10.63
2023-05-06T11:21:51.499Z,9.05
2023-05-06T11:24:28.660Z,8.60
2023-05-06T11:26:57.021Z,8.82
2023-05-06T11:29:24.388Z,8.82
2023-05-06T11:31:54.177Z,15.70
2023-05-06T11:34:26.802Z,13.57
2023-05-06T11:37:06.061Z,11.63
2023-05-06T11:39:40.590Z,10.75
2023-05-06T11:42:09.161Z,8.55
2023-05-06T11:44:38.138Z,9.93
2023-05-06T11:49:41.265Z,8.50
2023-05-06T11:52:13.097Z,8.30
2023-05-06T11:54:41.677Z,5.57
2023-05-06T11:57:09.836Z,8.60
2023-05-06T11:59:38.362Z,9.90
2023-05-06T12:02:07.775Z,9.15
2023-05-06T12:04:38.796Z,9.23
2023-05-06T12:07:07.729Z,6.90
2023-05-06T12:09:37.083Z,9.20
2023-05-06T12:12:05.407Z,7.35
2023-05-06T12:14:32.673Z,6.68
2023-05-06T12:17:00.022Z,13.52
2023-05-06T12:19:28.413Z,10.05
2023-05-06T12:21:55.891Z,12.63
2023-05-06T12:24:30.009Z,6.35
2023-05-06T12:26:57.168Z,6.72
2023-05-06T12:29:24.030Z,13.18
2023-05-06T12:32:08.637Z,8.25
2023-05-06T12:34:40.436Z,12.13
2023-05-06T12:37:08.852Z,10.10
2023-05-06T12:39:37.268Z,6.45
2023-05-06T12:42:05.096Z,7.97
2023-05-06T12:44:37.973Z,9.52
2023-05-06T12:47:07.533Z,11.55
2023-05-06T12:49:51.093Z,10.13
2023-05-06T12:52:20.390Z,152.45
2023-05-06T12:54:47.971Z,66.82
2023-05-06T12:57:15.894Z,11.77
2023-05-06T12:59:44.333Z,24.27
2023-05-06T13:02:12.026Z,17.00
2023-05-06T13:04:39.462Z,8.77
2023-05-06T13:07:06.742Z,29.25
2023-05-06T13:09:33.766Z,9.93
2023-05-06T13:12:01.341Z,11.73
2023-05-06T13:14:28.222Z,6.47
2023-05-06T13:16:56.122Z,4.95
2023-05-06T13:19:32.435Z,7.53
2023-05-06T13:22:01.725Z,11.23
2023-05-06T13:24:29.320Z,8.43
2023-05-06T13:26:57.268Z,6.70
2023-05-06T13:29:24.650Z,9.77
2023-05-06T13:31:52.350Z,7.10
2023-05-06T13:34:19.297Z,9.57
2023-05-06T13:36:49.132Z,7.35
2023-05-06T13:39:16.284Z,8.32
2023-05-06T13:41:46.903Z,11.00
2023-05-06T13:44:14.093Z,13.10
2023-05-06T13:46:43.012Z,6.28
2023-05-06T13:49:11.657Z,8.35
2023-05-06T13:51:38.898Z,7.30
2023-05-06T13:54:06.069Z,9.55
2023-05-06T13:56:34.347Z,8.10
2023-05-06T13:59:01.198Z,9.85
2023-05-06T14:01:28.422Z,6.90
2023-05-06T14:03:55.331Z,7.18
2023-05-06T14:06:22.434Z,6.82
2023-05-06T14:08:49.293Z,8.40
2023-05-06T14:11:16.508Z,8.85
2023-05-06T14:13:43.428Z,6.75
2023-05-06T14:16:10.657Z,9.73
2023-05-06T14:18:37.530Z,8.05
2023-05-06T14:21:04.726Z,5.57
2023-05-06T14:23:32.592Z,8.25
2023-05-06T14:26:00.153Z,6.50
2023-05-06T14:28:27.002Z,6.18
2023-05-06T14:30:54.259Z,6.93
2023-05-06T14:33:23.235Z,8.35
2023-05-06T14:35:52.838Z,11.55
2023-05-06T14:38:20.164Z,16.45
2023-05-06T14:40:47.350Z,25.50
2023-05-06T14:43:14.182Z,22.52
2023-05-06T14:45:41.384Z,16.52
2023-05-06T14:48:08.418Z,16.00
2023-05-06T14:50:35.595Z,14.30
2023-05-06T14:53:03.786Z,12.55
2023-05-06T14:55:31.339Z,30.73
2023-05-06T14:57:58.236Z,16.90
2023-05-06T15:00:25.534Z,10.63
2023-05-06T15:02:52.408Z,10.15
2023-05-06T15:05:19.681Z,12.25
2023-05-06T15:07:46.544Z,19.38
2023-05-06T15:10:13.808Z,8.63
2023-05-06T15:12:40.879Z,12.52
2023-05-06T15:15:08.792Z,11.50
2023-05-06T15:17:35.865Z,11.60
2023-05-06T15:20:04.503Z,19.70
2023-05-06T15:22:31.352Z,23.40
2023-05-06T15:24:58.489Z,16.70
2023-05-06T15:27:25.515Z,8.63
2023-05-06T15:29:52.647Z,64.30
2023-05-06T15:32:19.554Z,13.80
2023-05-06T15:34:46.687Z,23.75
2023-05-06T15:37:15.958Z,11.40
2023-05-06T15:39:43.079Z,14.25
2023-05-06T15:42:10.943Z,24.55
2023-05-06T15:44:38.108Z,12.40
2023-05-06T15:47:05.312Z,7.78
2023-05-06T15:52:02.311Z,10.23
2023-05-06T15:54:29.561Z,5.85
2023-05-06T15:56:56.836Z,14.52
2023-05-06T15:59:24.065Z,8.20
2023-05-06T16:02:25.730Z,18.58
2023-05-06T16:04:38.520Z,7.05
2023-05-06T16:07:05.660Z,13.65
2023-05-06T16:09:32.876Z,11.07
2023-05-06T16:11:59.981Z,9.63
2023-05-06T16:14:27.165Z,7.15
2023-05-06T16:16:54.056Z,12.50
2023-05-06T16:19:21.213Z,6.88
2023-05-06T16:21:48.481Z,7.80
2023-05-06T16:24:16.171Z,15.02
2023-05-06T16:26:43.022Z,7.93
2023-05-06T16:29:10.336Z,11.80
2023-05-06T16:31:37.498Z,20.05
2023-05-06T16:34:04.754Z,12.50
2023-05-06T16:36:31.770Z,14.18
2023-05-06T16:38:58.892Z,12.82
2023-05-06T16:41:25.923Z,13.60
2023-05-06T16:43:53.098Z,16.20
2023-05-06T16:46:21.432Z,10.40
2023-05-06T16:48:51.515Z,13.15
2023-05-06T16:51:18.404Z,10.88
2023-05-06T16:53:45.567Z,14.75
2023-05-06T16:56:13.568Z,17.08
2023-05-06T16:58:41.154Z,17.02
2023-05-06T17:01:08.269Z,19.63
2023-05-06T17:03:38.645Z,20.35
2023-05-06T17:06:05.942Z,16.92
2023-05-06T17:08:36.235Z,17.42
2023-05-06T17:11:06.919Z,25.33
2023-05-06T17:13:34.775Z,48.28
2023-05-06T17:16:01.743Z,30.55
2023-05-06T17:18:29.012Z,38.35
2023-05-06T17:20:57.137Z,30.52
2023-05-06T17:23:25.118Z,22.30
2023-05-06T17:25:52.075Z,19.40
2023-05-06T17:28:19.276Z,20.92
2023-05-06T17:30:46.788Z,25.27
2023-05-06T17:33:14.150Z,18.17
2023-05-06T17:35:41.022Z,33.38
2023-05-06T17:38:11.080Z,26.45
2023-05-06T17:40:37.912Z,22.77
2023-05-06T17:43:05.157Z,21.38
2023-05-06T17:45:32.168Z,19.40
2023-05-06T17:48:00.641Z,20.20
2023-05-06T17:50:27.568Z,45.72
2023-05-06T17:52:55.318Z,30.80
2023-05-06T17:55:22.539Z,23.40
2023-05-06T17:57:50.333Z,26.42
2023-05-06T18:00:17.401Z,33.30
2023-05-06T18:02:45.443Z,54.70
2023-05-06T18:05:13.552Z,28.40
2023-05-06T18:07:41.134Z,34.08
2023-05-06T18:10:08.681Z,21.92
2023-05-06T18:12:36.174Z,22.75
2023-05-06T18:15:03.203Z,21.55
2023-05-06T18:17:30.705Z,20.40
2023-05-06T18:19:57.596Z,23.98
2023-05-06T18:22:24.763Z,21.50
2023-05-06T18:24:55.312Z,20.45
2023-05-06T18:27:23.164Z,18.88
2023-05-06T18:29:50.062Z,15.38
2023-05-06T18:32:18.340Z,19.30
2023-05-06T18:34:45.404Z,15.00
2023-05-06T18:37:12.663Z,14.90
2023-05-06T18:39:41.850Z,14.93
2023-05-06T18:42:09.842Z,13.95
2023-05-06T18:44:36.888Z,15.35
2023-05-06T18:47:04.138Z,14.25
2023-05-06T18:49:31.394Z,15.57
2023-05-06T18:51:58.697Z,14.98
2023-05-06T18:54:25.619Z,16.73
2023-05-06T18:56:52.769Z,14.93
2023-05-06T18:59:22.751Z,15.18
2023-05-06T19:01:49.952Z,17.60
2023-05-06T19:04:16.804Z,20.52
2023-05-06T19:06:43.909Z,15.63
2023-05-06T19:09:11.401Z,15.20
2023-05-06T19:11:38.808Z,16.05
2023-05-06T19:14:05.758Z,16.50
2023-05-06T19:16:32.970Z,17.08
2023-05-06T19:19:00.049Z,19.65
2023-05-06T19:21:27.992Z,16.25
2023-05-06T19:23:59.734Z,18.20
2023-05-06T19:26:30.047Z,15.18
2023-05-06T19:28:56.995Z,20.58
2023-05-06T19:31:24.278Z,21.80
2023-05-06T19:33:51.184Z,21.13
2023-05-06T19:36:18.355Z,20.02
2023-05-06T19:38:45.316Z,25.63
2023-05-06T19:41:13.269Z,23.77
2023-05-06T19:43:42.246Z,21.88
2023-05-06T19:46:10.735Z,23.75
2023-05-06T19:48:39.080Z,17.83
2023-05-06T19:51:06.840Z,20.90
2023-05-06T19:53:34.283Z,21.30
2023-05-06T19:56:14.390Z,21.80
2023-05-06T19:58:41.343Z,19.50
2023-05-06T20:01:09.290Z,19.30
2023-05-06T20:03:36.464Z,16.65
2023-05-06T20:06:04.221Z,23.02
2023-05-06T20:08:31.279Z,18.60
2023-05-06T20:10:58.487Z,16.95
2023-05-06T20:13:26.036Z,16.80
2023-05-06T20:15:54.988Z,18.20
2023-05-06T20:18:21.987Z,18.98
2023-05-06T20:20:49.281Z,16.83
2023-05-06T20:23:16.119Z,19.35
2023-05-06T20:25:43.234Z,20.73
2023-05-06T20:28:10.090Z,29.77
2023-05-06T20:30:38.559Z,34.45
2023-05-06T20:33:05.727Z,27.73
2023-05-06T20:35:38.157Z,46.58
2023-05-06T20:38:06.163Z,35.53
2023-05-06T20:40:35.757Z,27.40
2023-05-06T20:43:03.036Z,22.52
2023-05-06T20:45:31.467Z,19.55
2023-05-06T20:47:58.730Z,19.25
2023-05-06T20:50:26.313Z,20.00
2023-05-06T20:52:54.451Z,21.88
2023-05-06T20:55:23.389Z,22.08
2023-05-06T20:57:50.549Z,21.85
2023-05-06T21:00:18.069Z,24.30
2023-05-06T21:02:44.948Z,23.48
2023-05-06T21:05:12.354Z,22.67
2023-05-06T21:07:39.507Z,23.35
2023-05-06T21:10:07.062Z,21.35
2023-05-06T21:12:34.134Z,21.88
2023-05-06T21:15:01.421Z,21.45
2023-05-06T21:17:28.967Z,21.08
2023-05-06T21:19:56.434Z,23.67
2023-05-06T21:22:24.120Z,24.42
2023-05-06T21:24:51.454Z,29.10
2023-05-06T21:27:18.409Z,26.00
2023-05-06T21:29:45.622Z,22.63
2023-05-06T21:32:12.469Z,25.75
2023-05-06T21:34:39.664Z,21.13
2023-05-06T21:37:06.557Z,21.88
2023-05-06T21:39:33.758Z,19.40
2023-05-06T21:42:00.696Z,20.65
2023-05-06T21:44:27.840Z,22.65
2023-05-06T21:46:54.937Z,25.05
2023-05-06T21:49:22.423Z,24.42
2023-05-06T21:51:49.488Z,20.02
2023-05-06T21:54:17.428Z,20.90
2023-05-06T21:56:45.009Z,20.02
2023-05-06T21:59:12.275Z,20.50
2023-05-06T22:01:39.209Z,17.95
2023-05-06T22:04:11.505Z,21.83
2023-05-06T22:06:39.584Z,17.27
2023-05-06T22:09:09.630Z,19.75
2023-05-06T22:11:39.536Z,23.80
2023-05-06T22:14:07.032Z,23.33
2023-05-06T22:16:35.733Z,26.95
2023-05-06T22:19:04.041Z,29.30
2023-05-06T22:21:32.663Z,33.30
2023-05-06T22:24:00.027Z,35.78
2023-05-06T22:26:30.216Z,36.65
2023-05-06T22:28:57.393Z,38.25
2023-05-06T22:31:24.996Z,39.22
2023-05-06T22:33:58.093Z,36.72
2023-05-06T22:36:29.172Z,40.25
2023-05-06T22:38:56.590Z,38.92
2023-05-06T22:41:23.417Z,37.65
2023-05-06T22:43:50.753Z,35.95
2023-05-06T22:46:17.831Z,41.05
2023-05-06T22:48:46.376Z,34.53
2023-05-06T22:51:18.680Z,35.97
2023-05-06T22:53:45.791Z,37.10
2023-05-06T22:56:12.813Z,34.97
2023-05-06T22:58:39.963Z,36.58
2023-05-06T23:01:07.587Z,36.90
2023-05-06T23:03:35.860Z,42.00
2023-05-06T23:06:04.452Z,36.55
2023-05-06T23:08:31.742Z,37.50
2023-05-06T23:10:58.604Z,34.95
2023-05-06T23:13:26.619Z,40.22
2023-05-06T23:15:53.663Z,41.25
2023-05-06T23:18:20.928Z,42.72
2023-05-06T23:20:48.074Z,44.47
2023-05-06T23:23:15.212Z,41.63
2023-05-06T23:25:42.074Z,45.97
2023-05-06T23:28:09.252Z,42.00
2023-05-06T23:30:36.144Z,43.85
2023-05-06T23:33:03.866Z,48.20
2023-05-06T23:35:32.634Z,49.22
2023-05-06T23:37:59.810Z,54.67
2023-05-06T23:40:26.744Z,54.05
2023-05-06T23:42:53.827Z,59.38
2023-05-06T23:45:20.717Z,54.97
2023-05-06T23:47:47.898Z,62.42
2023-05-06T23:50:14.878Z,63.40
2023-05-06T23:52:42.229Z,58.25
2023-05-06T23:55:09.653Z,64.75
2023-05-06T23:57:36.909Z,60.85
